Aérodrome :
LOGIN :

S'inscrire | Disclaimer

   EN    FR    IT 

 










Légende :    VFR   VFR Marginal   IFR   IFR Intensif   IFR Très Intensif
Visi : 
Plafond : 
>= 8 km
>= 3000ft
5 à 8 km
1000 à 3000 ft
1500m à 5 km
500 à 1000 ft
800 à 1500m
200 à 500 ft
< 800m
< 200 ft
Symboles :   Orages  Brouillard  Fortes neiges  Fortes précipitations  Vent > 20 kt
SIGMETs :   Divers  Orages  Givrage  Turbulence  Onde Orograph.  Cendres Volcan.







- Altitude de l'aérodrome : 297 ft
- Code IATA : UIP
- Voir les cartes d'approche


LFRQ - Quimper Pluguffan

DERNIER METAR :
  • 140800Z AUTO 28012KT 9999 SCT037/// BKN044/// BKN058/// ///TCU 07/05 Q1005 TEMPO 29025G38KT 4000 SHRA BKN012CB

METARs EXPIRÉS :
  • 140730Z AUTO 29016KT 9999 -RADZ FEW029/// BKN035/// BKN042/// ///TCU 07/05 Q1005 TEMPO 29025G38KT 4000 SHRA BKN012CB
  • 140700Z AUTO 30016G26KT 9999 4500 RA FEW024/// BKN031/// BKN039/// ///CB 08/05 Q1006 TEMPO 29025G38KT 4000 SHRA BKN012CB
  • 140630Z AUTO 28015KT 9999 FEW021/// SCT036/// BKN049/// ///CB 08/05 Q1006 TEMPO 29025G38KT 4000 SHRA BKN012CB
  • 140600Z AUTO 27013KT 9999 FEW025/// SCT054/// BKN064/// ///CB 07/05 Q1006 TEMPO 29025G38KT 4000 SHRA BKN012CB
  • 140530Z AUTO 28015KT 9999 -RA BKN033/// BKN040/// BKN048/// ///CB 09/04 Q1006 TEMPO 29025G38KT 4000 SHRA BKN012CB

TAF TAF LFRQ
Valide du 14 à 06h jusqu'au 14 à 15h UTC


140500Z 1406/1415 27018G28KT 9999 SCT020TCU BKN035
TEMPO 1406/1415 29025G38KT 4000 SHRA BKN012CB
PROB40
TEMPO 1406/1415 TSRAGS
Pas de NOTAMs connus pour ce terrain.
3 SIGMETs publiés pour la FIR Brest (LFRR) :
 
Annulation du SIGMET 2 
LFRR SIGMET 5 VALID 140610/140900 LFPW
LFRR BREST FIR/UIR CNL SIGMET 2 140700/140900=
Turbulence forte
LFRR SIGMET 3 VALID 140600/141000 LFPW
LFRR BREST FIR/UIR SEV TURB OBS AT 0600Z WI N4715 W00800 - N4900 W00800 - N5000 W00200 - N5000 W00015 - N4900 W00015 - N4830 W00400 - N4700 W00200 - N4715 W00800 SFC/FL060 STNR NC=
SIGMET 2  ANNULÉ :
Turbulence forte
LFRR SIGMET 2 VALID 140700/140900 LFPW
LFRR BREST FIR/UIR SEV TURB FCST WI N4730 W00800 - N4900 W00800 - N5000 W00200 - N4915 W00130 - N4830 W00445 - N4730 W00445 - N4730 W00800 SFC/FL050 STNR NC=



MET'MAP, la Météo Aéronautique d'un coup d'oeil ! - Copyright ORBIFLY Décembre 2007 - Disclaimer

ORBIFLY MET'MAP TEAM :

Programmation & Développement : Alexandra Zaïnal
Conception & Développement : Baudouin d'Aumeries
Co-Programmation & Développement : Marc-Olivier Méhu
Soutien technique & logistique : Manuel Goepfert

Contact : metmap@orbifly.com




SOURCES & CREDITS :

   NOAA